sensor_id;sensor_type;location;lat;lon;timestamp;temperature;humidity
9323;DHT22;4700;48.822;9.270;2022-08-04T00:02:02;22.20;1.00
9323;DHT22;4700;48.822;9.270;2022-08-04T00:04:54;22.10;1.00
9323;DHT22;4700;48.822;9.270;2022-08-04T00:07:50;22.10;1.00
9323;DHT22;4700;48.822;9.270;2022-08-04T00:10:42;22.10;1.00
9323;DHT22;4700;48.822;9.270;2022-08-04T00:13:35;22.00;1.00
9323;DHT22;4700;48.822;9.270;2022-08-04T00:16:25;21.90;1.00
9323;DHT22;4700;48.822;9.270;2022-08-04T00:19:17;21.90;1.00
9323;DHT22;4700;48.822;9.270;2022-08-04T00:22:07;21.90;1.00
9323;DHT22;4700;48.822;9.270;2022-08-04T00:24:54;21.80;1.00
9323;DHT22;4700;48.822;9.270;2022-08-04T00:27:40;21.80;1.00
9323;DHT22;4700;48.822;9.270;2022-08-04T00:30:27;21.80;1.00
9323;DHT22;4700;48.822;9.270;2022-08-04T00:33:17;21.80;1.00
9323;DHT22;4700;48.822;9.270;2022-08-04T00:36:04;21.80;1.00
9323;DHT22;4700;48.822;9.270;2022-08-04T00:38:50;21.80;1.00
9323;DHT22;4700;48.822;9.270;2022-08-04T00:41:42;21.80;1.00
9323;DHT22;4700;48.822;9.270;2022-08-04T00:44:52;21.80;1.00
9323;DHT22;4700;48.822;9.270;2022-08-04T00:48:03;21.80;1.00
9323;DHT22;4700;48.822;9.270;2022-08-04T00:51:04;21.70;1.00
9323;DHT22;4700;48.822;9.270;2022-08-04T00:54:03;21.60;1.00
9323;DHT22;4700;48.822;9.270;2022-08-04T00:57:08;21.60;1.00
9323;DHT22;4700;48.822;9.270;2022-08-04T01:00:07;21.50;1.00
9323;DHT22;4700;48.822;9.270;2022-08-04T01:03:10;21.40;1.00
9323;DHT22;4700;48.822;9.270;2022-08-04T01:06:23;21.40;1.00
9323;DHT22;4700;48.822;9.270;2022-08-04T01:09:25;21.40;1.00
9323;DHT22;4700;48.822;9.270;2022-08-04T01:15:35;21.40;1.00
9323;DHT22;4700;48.822;9.270;2022-08-04T01:18:32;21.30;1.00
9323;DHT22;4700;48.822;9.270;2022-08-04T01:21:53;21.30;1.00
9323;DHT22;4700;48.822;9.270;2022-08-04T01:24:56;21.20;1.00
9323;DHT22;4700;48.822;9.270;2022-08-04T01:28:00;21.20;1.00
9323;DHT22;4700;48.822;9.270;2022-08-04T01:30:56;21.10;1.00
9323;DHT22;4700;48.822;9.270;2022-08-04T01:33:44;21.10;1.00
9323;DHT22;4700;48.822;9.270;2022-08-04T01:36:33;21.00;1.00
9323;DHT22;4700;48.822;9.270;2022-08-04T01:39:20;20.90;1.00
9323;DHT22;4700;48.822;9.270;2022-08-04T01:42:25;20.90;1.00
9323;DHT22;4700;48.822;9.270;2022-08-04T01:45:12;20.80;1.00
9323;DHT22;4700;48.822;9.270;2022-08-04T01:48:00;20.80;1.00
9323;DHT22;4700;48.822;9.270;2022-08-04T01:50:47;20.80;1.00
9323;DHT22;4700;48.822;9.270;2022-08-04T01:53:35;20.80;1.00
9323;DHT22;4700;48.822;9.270;2022-08-04T01:56:22;20.80;1.00
9323;DHT22;4700;48.822;9.270;2022-08-04T01:59:11;20.80;1.00
9323;DHT22;4700;48.822;9.270;2022-08-04T02:01:59;20.80;1.00
9323;DHT22;4700;48.822;9.270;2022-08-04T02:04:46;20.80;1.00
9323;DHT22;4700;48.822;9.270;2022-08-04T02:07:42;20.80;1.00
9323;DHT22;4700;48.822;9.270;2022-08-04T02:10:44;20.80;1.00
9323;DHT22;4700;48.822;9.270;2022-08-04T02:13:35;20.70;1.00
9323;DHT22;4700;48.822;9.270;2022-08-04T02:16:29;20.60;1.00
9323;DHT22;4700;48.822;9.270;2022-08-04T02:19:23;20.60;1.00
9323;DHT22;4700;48.822;9.270;2022-08-04T02:22:17;20.60;1.00
9323;DHT22;4700;48.822;9.270;2022-08-04T02:25:06;20.50;1.00
9323;DHT22;4700;48.822;9.270;2022-08-04T02:28:05;20.50;1.00
9323;DHT22;4700;48.822;9.270;2022-08-04T02:31:15;20.40;1.00
9323;DHT22;4700;48.822;9.270;2022-08-04T02:34:07;20.30;1.00
9323;DHT22;4700;48.822;9.270;2022-08-04T02:36:54;20.30;1.00
9323;DHT22;4700;48.822;9.270;2022-08-04T02:39:43;20.20;1.00
9323;DHT22;4700;48.822;9.270;2022-08-04T02:42:31;20.20;1.00
9323;DHT22;4700;48.822;9.270;2022-08-04T02:45:18;20.20;1.00
9323;DHT22;4700;48.822;9.270;2022-08-04T02:48:07;20.10;1.00
9323;DHT22;4700;48.822;9.270;2022-08-04T02:50:55;20.10;1.00
9323;DHT22;4700;48.822;9.270;2022-08-04T02:53:42;20.10;1.00
9323;DHT22;4700;48.822;9.270;2022-08-04T02:56:31;20.10;1.00
9323;DHT22;4700;48.822;9.270;2022-08-04T02:59:20;20.00;1.00
9323;DHT22;4700;48.822;9.270;2022-08-04T03:02:07;20.00;1.00
9323;DHT22;4700;48.822;9.270;2022-08-04T03:04:56;19.90;1.00
9323;DHT22;4700;48.822;9.270;2022-08-04T03:08:22;19.90;1.00
9323;DHT22;4700;48.822;9.270;2022-08-04T03:11:31;19.90;1.00
9323;DHT22;4700;48.822;9.270;2022-08-04T03:14:43;19.80;1.00
9323;DHT22;4700;48.822;9.270;2022-08-04T03:17:49;19.70;1.00
9323;DHT22;4700;48.822;9.270;2022-08-04T03:21:15;19.70;1.00
9323;DHT22;4700;48.822;9.270;2022-08-04T03:24:25;19.70;1.00
9323;DHT22;4700;48.822;9.270;2022-08-04T03:27:51;19.70;1.00
9323;DHT22;4700;48.822;9.270;2022-08-04T03:30:52;19.70;1.00
9323;DHT22;4700;48.822;9.270;2022-08-04T03:33:51;19.70;1.00
9323;DHT22;4700;48.822;9.270;2022-08-04T03:37:24;19.60;1.00
9323;DHT22;4700;48.822;9.270;2022-08-04T03:40:34;19.60;1.00
9323;DHT22;4700;48.822;9.270;2022-08-04T03:43:55;19.60;1.00
9323;DHT22;4700;48.822;9.270;2022-08-04T03:46:57;19.60;1.00
9323;DHT22;4700;48.822;9.270;2022-08-04T03:50:21;19.60;1.00
9323;DHT22;4700;48.822;9.270;2022-08-04T03:53:24;19.70;1.00
9323;DHT22;4700;48.822;9.270;2022-08-04T03:56:35;19.60;1.00
9323;DHT22;4700;48.822;9.270;2022-08-04T03:59:49;19.60;1.00
9323;DHT22;4700;48.822;9.270;2022-08-04T04:03:03;19.60;1.00
9323;DHT22;4700;48.822;9.270;2022-08-04T04:06:09;19.60;1.00
9323;DHT22;4700;48.822;9.270;2022-08-04T04:12:46;19.60;1.00
9323;DHT22;4700;48.822;9.270;2022-08-04T04:16:04;19.60;1.00
9323;DHT22;4700;48.822;9.270;2022-08-04T04:19:00;19.70;1.00
9323;DHT22;4700;48.822;9.270;2022-08-04T04:22:08;19.80;1.00
9323;DHT22;4700;48.822;9.270;2022-08-04T04:25:07;19.80;1.00
9323;DHT22;4700;48.822;9.270;2022-08-04T04:28:17;19.90;1.00
9323;DHT22;4700;48.822;9.270;2022-08-04T04:31:23;19.90;1.00
9323;DHT22;4700;48.822;9.270;2022-08-04T04:34:25;20.00;1.00
9323;DHT22;4700;48.822;9.270;2022-08-04T04:37:36;20.00;1.00
9323;DHT22;4700;48.822;9.270;2022-08-04T04:40:38;20.10;1.00
9323;DHT22;4700;48.822;9.270;2022-08-04T04:43:56;20.10;1.00
9323;DHT22;4700;48.822;9.270;2022-08-04T04:46:53;20.10;1.00
9323;DHT22;4700;48.822;9.270;2022-08-04T04:49:48;20.00;1.00
9323;DHT22;4700;48.822;9.270;2022-08-04T04:52:40;20.00;1.00
9323;DHT22;4700;48.822;9.270;2022-08-04T04:55:30;20.00;1.00
9323;DHT22;4700;48.822;9.270;2022-08-04T04:58:19;20.00;1.00
9323;DHT22;4700;48.822;9.270;2022-08-04T05:04:43;20.10;1.00
9323;DHT22;4700;48.822;9.270;2022-08-04T05:07:55;20.10;1.00
9323;DHT22;4700;48.822;9.270;2022-08-04T05:10:50;20.30;1.00
9323;DHT22;4700;48.822;9.270;2022-08-04T05:13:45;20.40;1.00
9323;DHT22;4700;48.822;9.270;2022-08-04T05:16:36;20.60;1.00
9323;DHT22;4700;48.822;9.270;2022-08-04T05:19:30;20.70;1.00
9323;DHT22;4700;48.822;9.270;2022-08-04T05:22:23;20.80;1.00
9323;DHT22;4700;48.822;9.270;2022-08-04T05:25:18;21.00;1.00
9323;DHT22;4700;48.822;9.270;2022-08-04T05:28:09;21.10;1.00
9323;DHT22;4700;48.822;9.270;2022-08-04T05:31:01;21.10;1.00
9323;DHT22;4700;48.822;9.270;2022-08-04T05:33:51;21.20;1.00
9323;DHT22;4700;48.822;9.270;2022-08-04T05:36:41;21.30;1.00
9323;DHT22;4700;48.822;9.270;2022-08-04T05:39:37;21.40;1.00
9323;DHT22;4700;48.822;9.270;2022-08-04T05:42:26;21.50;1.00
9323;DHT22;4700;48.822;9.270;2022-08-04T05:45:12;21.70;1.00
9323;DHT22;4700;48.822;9.270;2022-08-04T05:47:58;21.80;1.00
9323;DHT22;4700;48.822;9.270;2022-08-04T05:50:45;21.90;1.00
9323;DHT22;4700;48.822;9.270;2022-08-04T05:53:32;22.10;1.00
9323;DHT22;4700;48.822;9.270;2022-08-04T05:56:20;22.20;1.00
9323;DHT22;4700;48.822;9.270;2022-08-04T05:59:07;22.40;1.00
9323;DHT22;4700;48.822;9.270;2022-08-04T06:01:58;22.60;1.00
9323;DHT22;4700;48.822;9.270;2022-08-04T06:04:48;22.80;1.00
9323;DHT22;4700;48.822;9.270;2022-08-04T06:07:34;23.00;1.00
9323;DHT22;4700;48.822;9.270;2022-08-04T06:10:19;23.10;1.00
9323;DHT22;4700;48.822;9.270;2022-08-04T06:13:10;23.20;1.00
9323;DHT22;4700;48.822;9.270;2022-08-04T06:15:57;23.50;1.00
9323;DHT22;4700;48.822;9.270;2022-08-04T06:18:46;23.80;1.00
9323;DHT22;4700;48.822;9.270;2022-08-04T06:21:34;24.00;1.00
9323;DHT22;4700;48.822;9.270;2022-08-04T06:24:28;24.40;1.00
9323;DHT22;4700;48.822;9.270;2022-08-04T06:27:16;24.80;1.00
9323;DHT22;4700;48.822;9.270;2022-08-04T06:30:07;25.60;1.00
9323;DHT22;4700;48.822;9.270;2022-08-04T06:32:57;27.60;1.00
9323;DHT22;4700;48.822;9.270;2022-08-04T06:35:46;31.20;1.00
9323;DHT22;4700;48.822;9.270;2022-08-04T06:38:33;34.80;1.00
9323;DHT22;4700;48.822;9.270;2022-08-04T06:41:20;37.40;1.00
9323;DHT22;4700;48.822;9.270;2022-08-04T06:44:08;36.10;1.00
9323;DHT22;4700;48.822;9.270;2022-08-04T06:46:57;36.90;1.00
9323;DHT22;4700;48.822;9.270;2022-08-04T06:49:45;37.70;1.00
9323;DHT22;4700;48.822;9.270;2022-08-04T06:52:31;38.00;1.00
9323;DHT22;4700;48.822;9.270;2022-08-04T06:55:17;38.10;1.00
9323;DHT22;4700;48.822;9.270;2022-08-04T06:58:06;38.70;1.00
9323;DHT22;4700;48.822;9.270;2022-08-04T07:00:54;39.20;1.00
9323;DHT22;4700;48.822;9.270;2022-08-04T07:03:46;40.20;1.00
9323;DHT22;4700;48.822;9.270;2022-08-04T07:06:32;39.80;1.00
9323;DHT22;4700;48.822;9.270;2022-08-04T07:09:18;41.70;1.00
9323;DHT22;4700;48.822;9.270;2022-08-04T07:12:05;42.10;1.00
9323;DHT22;4700;48.822;9.270;2022-08-04T07:14:54;45.00;1.00
9323;DHT22;4700;48.822;9.270;2022-08-04T07:17:40;46.30;99.90
9323;DHT22;4700;48.822;9.270;2022-08-04T07:20:28;42.40;99.90
9323;DHT22;4700;48.822;9.270;2022-08-04T07:23:16;40.70;1.00
9323;DHT22;4700;48.822;9.270;2022-08-04T07:26:07;41.50;99.90
9323;DHT22;4700;48.822;9.270;2022-08-04T07:28:54;44.70;99.90
9323;DHT22;4700;48.822;9.270;2022-08-04T07:31:41;45.40;99.90
9323;DHT22;4700;48.822;9.270;2022-08-04T07:34:36;47.80;99.90
9323;DHT22;4700;48.822;9.270;2022-08-04T07:37:26;45.90;99.90
9323;DHT22;4700;48.822;9.270;2022-08-04T07:40:13;42.30;99.90
9323;DHT22;4700;48.822;9.270;2022-08-04T07:43:01;42.50;99.90
9323;DHT22;4700;48.822;9.270;2022-08-04T07:45:47;44.90;99.90
9323;DHT22;4700;48.822;9.270;2022-08-04T07:48:33;44.60;99.90
9323;DHT22;4700;48.822;9.270;2022-08-04T07:51:20;44.10;99.90
9323;DHT22;4700;48.822;9.270;2022-08-04T07:54:09;44.60;99.90
9323;DHT22;4700;48.822;9.270;2022-08-04T07:56:55;44.20;99.90
9323;DHT22;4700;48.822;9.270;2022-08-04T07:59:44;45.30;99.90
9323;DHT22;4700;48.822;9.270;2022-08-04T08:02:30;46.10;99.90
9323;DHT22;4700;48.822;9.270;2022-08-04T08:05:14;48.50;99.90
9323;DHT22;4700;48.822;9.270;2022-08-04T08:08:01;49.40;99.90
9323;DHT22;4700;48.822;9.270;2022-08-04T08:10:50;47.50;99.90
9323;DHT22;4700;48.822;9.270;2022-08-04T08:13:37;47.30;99.90
9323;DHT22;4700;48.822;9.270;2022-08-04T08:16:24;47.80;99.90
9323;DHT22;4700;48.822;9.270;2022-08-04T08:19:11;49.90;99.90
9323;DHT22;4700;48.822;9.270;2022-08-04T08:21:57;51.40;99.90
9323;DHT22;4700;48.822;9.270;2022-08-04T08:24:43;51.70;99.90
9323;DHT22;4700;48.822;9.270;2022-08-04T08:27:30;52.60;99.90
9323;DHT22;4700;48.822;9.270;2022-08-04T08:30:16;51.30;99.90
9323;DHT22;4700;48.822;9.270;2022-08-04T08:33:04;52.20;99.90
9323;DHT22;4700;48.822;9.270;2022-08-04T08:35:55;52.40;99.90
9323;DHT22;4700;48.822;9.270;2022-08-04T08:38:51;52.40;99.90
9323;DHT22;4700;48.822;9.270;2022-08-04T08:42:13;52.50;99.90
9323;DHT22;4700;48.822;9.270;2022-08-04T08:48:43;52.10;99.90
9323;DHT22;4700;48.822;9.270;2022-08-04T08:51:43;52.30;99.90
9323;DHT22;4700;48.822;9.270;2022-08-04T08:55:00;51.90;99.90
9323;DHT22;4700;48.822;9.270;2022-08-04T09:01:15;51.30;99.90
9323;DHT22;4700;48.822;9.270;2022-08-04T09:04:35;49.90;99.90
9323;DHT22;4700;48.822;9.270;2022-08-04T09:07:44;50.70;99.90
9323;DHT22;4700;48.822;9.270;2022-08-04T09:10:39;51.10;99.90
9323;DHT22;4700;48.822;9.270;2022-08-04T09:13:38;51.20;99.90
9323;DHT22;4700;48.822;9.270;2022-08-04T09:16:37;51.10;99.90
9323;DHT22;4700;48.822;9.270;2022-08-04T09:19:31;50.10;99.90
9323;DHT22;4700;48.822;9.270;2022-08-04T09:22:27;49.00;99.90
9323;DHT22;4700;48.822;9.270;2022-08-04T09:25:19;45.60;99.90
9323;DHT22;4700;48.822;9.270;2022-08-04T09:28:18;46.10;99.90
9323;DHT22;4700;48.822;9.270;2022-08-04T09:31:10;46.40;99.90
9323;DHT22;4700;48.822;9.270;2022-08-04T09:34:08;45.90;99.90
9323;DHT22;4700;48.822;9.270;2022-08-04T09:37:06;46.80;99.90
9323;DHT22;4700;48.822;9.270;2022-08-04T09:40:03;46.80;99.90
9323;DHT22;4700;48.822;9.270;2022-08-04T09:43:01;45.80;99.90
9323;DHT22;4700;48.822;9.270;2022-08-04T09:45:57;44.70;99.90
9323;DHT22;4700;48.822;9.270;2022-08-04T09:48:51;44.50;99.90
9323;DHT22;4700;48.822;9.270;2022-08-04T09:51:48;44.40;99.90
9323;DHT22;4700;48.822;9.270;2022-08-04T09:54:45;42.40;99.90
9323;DHT22;4700;48.822;9.270;2022-08-04T09:57:44;39.70;99.90
9323;DHT22;4700;48.822;9.270;2022-08-04T10:00:35;39.90;99.90
9323;DHT22;4700;48.822;9.270;2022-08-04T10:06:07;40.60;99.90
9323;DHT22;4700;48.822;9.270;2022-08-04T10:09:06;41.90;99.90
9323;DHT22;4700;48.822;9.270;2022-08-04T10:12:04;41.50;99.90
9323;DHT22;4700;48.822;9.270;2022-08-04T10:15:02;43.00;99.90
9323;DHT22;4700;48.822;9.270;2022-08-04T10:18:06;43.50;99.90
9323;DHT22;4700;48.822;9.270;2022-08-04T10:21:09;43.30;99.90
9323;DHT22;4700;48.822;9.270;2022-08-04T10:24:14;43.70;99.90
9323;DHT22;4700;48.822;9.270;2022-08-04T10:27:09;43.60;99.90
9323;DHT22;4700;48.822;9.270;2022-08-04T10:30:02;42.80;99.90
9323;DHT22;4700;48.822;9.270;2022-08-04T10:33:01;42.40;99.90
9323;DHT22;4700;48.822;9.270;2022-08-04T10:35:50;42.40;99.90
9323;DHT22;4700;48.822;9.270;2022-08-04T10:38:45;41.60;99.90
9323;DHT22;4700;48.822;9.270;2022-08-04T10:41:39;41.10;99.90
9323;DHT22;4700;48.822;9.270;2022-08-04T10:44:36;40.10;99.90
9323;DHT22;4700;48.822;9.270;2022-08-04T10:47:32;39.30;99.90
9323;DHT22;4700;48.822;9.270;2022-08-04T10:50:20;38.40;99.90
9323;DHT22;4700;48.822;9.270;2022-08-04T10:53:12;38.10;99.90
9323;DHT22;4700;48.822;9.270;2022-08-04T10:56:03;38.10;99.90
9323;DHT22;4700;48.822;9.270;2022-08-04T10:58:55;38.20;99.90
9323;DHT22;4700;48.822;9.270;2022-08-04T11:01:45;37.90;99.90
9323;DHT22;4700;48.822;9.270;2022-08-04T11:04:40;37.90;99.90
9323;DHT22;4700;48.822;9.270;2022-08-04T11:07:29;37.70;99.90
9323;DHT22;4700;48.822;9.270;2022-08-04T11:10:20;37.60;99.90
9323;DHT22;4700;48.822;9.270;2022-08-04T11:13:09;37.50;99.90
9323;DHT22;4700;48.822;9.270;2022-08-04T11:15:58;37.50;99.90
9323;DHT22;4700;48.822;9.270;2022-08-04T11:19:01;37.30;99.90
9323;DHT22;4700;48.822;9.270;2022-08-04T11:21:55;37.30;99.90
9323;DHT22;4700;48.822;9.270;2022-08-04T11:24:48;37.10;99.90
9323;DHT22;4700;48.822;9.270;2022-08-04T11:27:39;37.10;99.90
9323;DHT22;4700;48.822;9.270;2022-08-04T11:30:33;37.00;99.90
9323;DHT22;4700;48.822;9.270;2022-08-04T11:33:26;37.30;99.90
9323;DHT22;4700;48.822;9.270;2022-08-04T11:36:22;37.50;99.90
9323;DHT22;4700;48.822;9.270;2022-08-04T11:39:14;37.40;99.90
9323;DHT22;4700;48.822;9.270;2022-08-04T11:42:06;37.40;99.90
9323;DHT22;4700;48.822;9.270;2022-08-04T11:45:01;36.90;99.90
9323;DHT22;4700;48.822;9.270;2022-08-04T11:47:56;36.30;99.90
9323;DHT22;4700;48.822;9.270;2022-08-04T11:50:46;36.10;99.90
9323;DHT22;4700;48.822;9.270;2022-08-04T11:53:37;35.70;99.90
9323;DHT22;4700;48.822;9.270;2022-08-04T11:56:25;35.60;99.90
9323;DHT22;4700;48.822;9.270;2022-08-04T11:59:14;36.00;99.90
9323;DHT22;4700;48.822;9.270;2022-08-04T12:05:27;36.60;99.90
9323;DHT22;4700;48.822;9.270;2022-08-04T12:08:28;36.70;99.90
9323;DHT22;4700;48.822;9.270;2022-08-04T12:11:27;36.50;99.90
9323;DHT22;4700;48.822;9.270;2022-08-04T12:14:27;36.50;99.90
9323;DHT22;4700;48.822;9.270;2022-08-04T12:17:21;35.80;99.90
9323;DHT22;4700;48.822;9.270;2022-08-04T12:20:09;35.50;99.90
9323;DHT22;4700;48.822;9.270;2022-08-04T12:23:01;35.40;99.90
9323;DHT22;4700;48.822;9.270;2022-08-04T12:25:51;35.10;99.90
9323;DHT22;4700;48.822;9.270;2022-08-04T12:28:42;34.90;99.90
9323;DHT22;4700;48.822;9.270;2022-08-04T12:31:33;34.80;99.90
9323;DHT22;4700;48.822;9.270;2022-08-04T12:34:26;34.80;99.90
9323;DHT22;4700;48.822;9.270;2022-08-04T12:37:21;35.20;99.90
9323;DHT22;4700;48.822;9.270;2022-08-04T12:40:15;35.20;99.90
9323;DHT22;4700;48.822;9.270;2022-08-04T12:43:08;35.00;99.90
9323;DHT22;4700;48.822;9.270;2022-08-04T12:46:01;34.80;99.90
9323;DHT22;4700;48.822;9.270;2022-08-04T12:48:48;35.00;99.90
9323;DHT22;4700;48.822;9.270;2022-08-04T12:51:37;35.30;99.90
9323;DHT22;4700;48.822;9.270;2022-08-04T12:54:28;35.60;99.90
9323;DHT22;4700;48.822;9.270;2022-08-04T12:57:16;35.80;99.90
9323;DHT22;4700;48.822;9.270;2022-08-04T13:00:03;36.10;99.90
9323;DHT22;4700;48.822;9.270;2022-08-04T13:02:52;35.70;99.90
9323;DHT22;4700;48.822;9.270;2022-08-04T13:05:39;35.50;99.90
9323;DHT22;4700;48.822;9.270;2022-08-04T13:08:26;35.50;99.90
9323;DHT22;4700;48.822;9.270;2022-08-04T13:11:13;35.70;99.90
9323;DHT22;4700;48.822;9.270;2022-08-04T13:14:01;35.80;99.90
9323;DHT22;4700;48.822;9.270;2022-08-04T13:16:55;35.50;99.90
9323;DHT22;4700;48.822;9.270;2022-08-04T13:19:48;35.10;99.90
9323;DHT22;4700;48.822;9.270;2022-08-04T13:22:37;35.20;99.90
9323;DHT22;4700;48.822;9.270;2022-08-04T13:25:27;35.40;99.90
9323;DHT22;4700;48.822;9.270;2022-08-04T13:28:15;35.30;99.90
9323;DHT22;4700;48.822;9.270;2022-08-04T13:31:06;35.30;99.90
9323;DHT22;4700;48.822;9.270;2022-08-04T13:34:01;35.40;99.90
9323;DHT22;4700;48.822;9.270;2022-08-04T13:36:54;35.60;99.90
9323;DHT22;4700;48.822;9.270;2022-08-04T13:39:43;35.80;99.90
9323;DHT22;4700;48.822;9.270;2022-08-04T13:42:33;36.00;99.90
9323;DHT22;4700;48.822;9.270;2022-08-04T13:45:22;36.30;99.90
9323;DHT22;4700;48.822;9.270;2022-08-04T13:48:09;36.40;99.90
9323;DHT22;4700;48.822;9.270;2022-08-04T13:50:57;36.70;99.90
9323;DHT22;4700;48.822;9.270;2022-08-04T13:53:56;36.70;99.90
9323;DHT22;4700;48.822;9.270;2022-08-04T13:56:45;37.00;99.90
9323;DHT22;4700;48.822;9.270;2022-08-04T13:59:35;37.40;99.90
9323;DHT22;4700;48.822;9.270;2022-08-04T14:02:32;37.80;99.90
9323;DHT22;4700;48.822;9.270;2022-08-04T14:05:22;37.70;99.90
9323;DHT22;4700;48.822;9.270;2022-08-04T14:08:23;37.60;99.90
9323;DHT22;4700;48.822;9.270;2022-08-04T14:11:10;37.50;99.90
9323;DHT22;4700;48.822;9.270;2022-08-04T14:13:56;37.20;99.90
9323;DHT22;4700;48.822;9.270;2022-08-04T14:17:00;36.90;99.90
9323;DHT22;4700;48.822;9.270;2022-08-04T14:19:52;36.80;99.90
9323;DHT22;4700;48.822;9.270;2022-08-04T14:22:38;36.80;99.90
9323;DHT22;4700;48.822;9.270;2022-08-04T14:25:27;36.90;99.90
9323;DHT22;4700;48.822;9.270;2022-08-04T14:28:26;37.00;99.90
9323;DHT22;4700;48.822;9.270;2022-08-04T14:31:14;36.80;99.90
9323;DHT22;4700;48.822;9.270;2022-08-04T14:33:59;37.10;99.90
9323;DHT22;4700;48.822;9.270;2022-08-04T14:36:45;37.40;99.90
9323;DHT22;4700;48.822;9.270;2022-08-04T14:39:38;37.90;99.90
9323;DHT22;4700;48.822;9.270;2022-08-04T14:42:39;38.10;99.90
9323;DHT22;4700;48.822;9.270;2022-08-04T14:45:31;38.00;99.90
9323;DHT22;4700;48.822;9.270;2022-08-04T14:48:17;37.90;99.90
9323;DHT22;4700;48.822;9.270;2022-08-04T14:51:03;37.60;99.90
9323;DHT22;4700;48.822;9.270;2022-08-04T14:53:49;38.00;99.90
9323;DHT22;4700;48.822;9.270;2022-08-04T14:56:35;38.30;99.90
9323;DHT22;4700;48.822;9.270;2022-08-04T14:59:21;38.40;99.90
9323;DHT22;4700;48.822;9.270;2022-08-04T15:02:09;38.20;99.90
9323;DHT22;4700;48.822;9.270;2022-08-04T15:04:56;38.10;99.90
9323;DHT22;4700;48.822;9.270;2022-08-04T15:07:42;38.00;99.90
9323;DHT22;4700;48.822;9.270;2022-08-04T15:10:28;38.00;99.90
9323;DHT22;4700;48.822;9.270;2022-08-04T15:13:14;38.00;99.90
9323;DHT22;4700;48.822;9.270;2022-08-04T15:16:00;38.20;99.90
9323;DHT22;4700;48.822;9.270;2022-08-04T15:18:47;38.30;99.90
9323;DHT22;4700;48.822;9.270;2022-08-04T15:21:35;38.20;99.90
9323;DHT22;4700;48.822;9.270;2022-08-04T15:24:21;38.20;99.90
9323;DHT22;4700;48.822;9.270;2022-08-04T15:27:07;38.10;99.90
9323;DHT22;4700;48.822;9.270;2022-08-04T15:29:56;38.00;99.90
9323;DHT22;4700;48.822;9.270;2022-08-04T15:32:49;38.00;99.90
9323;DHT22;4700;48.822;9.270;2022-08-04T15:35:36;38.10;99.90
9323;DHT22;4700;48.822;9.270;2022-08-04T15:38:28;38.00;99.90
9323;DHT22;4700;48.822;9.270;2022-08-04T15:41:22;37.90;99.90
9323;DHT22;4700;48.822;9.270;2022-08-04T15:47:33;37.90;99.90
9323;DHT22;4700;48.822;9.270;2022-08-04T15:50:21;37.90;99.90
9323;DHT22;4700;48.822;9.270;2022-08-04T15:53:08;37.90;99.90
9323;DHT22;4700;48.822;9.270;2022-08-04T15:55:54;37.90;99.90
9323;DHT22;4700;48.822;9.270;2022-08-04T15:58:48;38.00;99.90
9323;DHT22;4700;48.822;9.270;2022-08-04T16:01:34;38.20;99.90
9323;DHT22;4700;48.822;9.270;2022-08-04T16:04:21;38.20;99.90
9323;DHT22;4700;48.822;9.270;2022-08-04T16:07:04;38.00;99.90
9323;DHT22;4700;48.822;9.270;2022-08-04T16:09:51;37.70;99.90
9323;DHT22;4700;48.822;9.270;2022-08-04T16:12:54;37.40;99.90
9323;DHT22;4700;48.822;9.270;2022-08-04T16:15:45;37.10;99.90
9323;DHT22;4700;48.822;9.270;2022-08-04T16:18:37;36.90;99.90
9323;DHT22;4700;48.822;9.270;2022-08-04T16:21:24;36.70;99.90
9323;DHT22;4700;48.822;9.270;2022-08-04T16:24:17;36.40;99.90
9323;DHT22;4700;48.822;9.270;2022-08-04T16:27:06;36.60;99.90
9323;DHT22;4700;48.822;9.270;2022-08-04T16:30:03;36.70;99.90
9323;DHT22;4700;48.822;9.270;2022-08-04T16:32:51;36.80;99.90
9323;DHT22;4700;48.822;9.270;2022-08-04T16:35:38;36.80;99.90
9323;DHT22;4700;48.822;9.270;2022-08-04T16:38:24;36.80;99.90
9323;DHT22;4700;48.822;9.270;2022-08-04T16:41:10;36.80;99.90
9323;DHT22;4700;48.822;9.270;2022-08-04T16:50:50;36.20;99.90
9323;DHT22;4700;48.822;9.270;2022-08-04T16:53:40;35.90;99.90
9323;DHT22;4700;48.822;9.270;2022-08-04T16:56:28;36.00;99.90
9323;DHT22;4700;48.822;9.270;2022-08-04T16:59:14;35.90;99.90
9323;DHT22;4700;48.822;9.270;2022-08-04T17:02:00;35.80;99.90
9323;DHT22;4700;48.822;9.270;2022-08-04T17:07:13;35.90;99.90
9323;DHT22;4700;48.822;9.270;2022-08-04T17:09:59;35.90;99.90
9323;DHT22;4700;48.822;9.270;2022-08-04T17:12:47;35.90;99.90
9323;DHT22;4700;48.822;9.270;2022-08-04T17:15:33;36.00;99.90
9323;DHT22;4700;48.822;9.270;2022-08-04T17:18:22;36.00;99.90
9323;DHT22;4700;48.822;9.270;2022-08-04T17:21:10;36.00;99.90
9323;DHT22;4700;48.822;9.270;2022-08-04T17:24:03;35.90;99.90
9323;DHT22;4700;48.822;9.270;2022-08-04T17:26:49;35.90;99.90
9323;DHT22;4700;48.822;9.270;2022-08-04T17:29:35;35.80;99.90
9323;DHT22;4700;48.822;9.270;2022-08-04T17:32:21;35.50;99.90
9323;DHT22;4700;48.822;9.270;2022-08-04T17:35:08;35.50;99.90
9323;DHT22;4700;48.822;9.270;2022-08-04T17:37:55;35.40;99.90
9323;DHT22;4700;48.822;9.270;2022-08-04T17:40:55;35.30;99.90
9323;DHT22;4700;48.822;9.270;2022-08-04T17:43:45;35.10;99.90
9323;DHT22;4700;48.822;9.270;2022-08-04T17:46:36;35.10;99.90
9323;DHT22;4700;48.822;9.270;2022-08-04T17:49:22;34.90;99.90
9323;DHT22;4700;48.822;9.270;2022-08-04T17:52:18;34.70;99.90
9323;DHT22;4700;48.822;9.270;2022-08-04T17:55:05;34.60;99.90
9323;DHT22;4700;48.822;9.270;2022-08-04T17:58:16;34.50;99.90
9323;DHT22;4700;48.822;9.270;2022-08-04T18:01:02;34.50;99.90
9323;DHT22;4700;48.822;9.270;2022-08-04T18:03:48;34.50;99.90
9323;DHT22;4700;48.822;9.270;2022-08-04T18:06:34;34.30;99.90
9323;DHT22;4700;48.822;9.270;2022-08-04T18:09:24;34.20;99.90
9323;DHT22;4700;48.822;9.270;2022-08-04T18:12:20;34.10;99.90
9323;DHT22;4700;48.822;9.270;2022-08-04T18:15:20;34.00;99.90
9323;DHT22;4700;48.822;9.270;2022-08-04T18:18:16;33.90;99.90
9323;DHT22;4700;48.822;9.270;2022-08-04T18:21:01;33.70;99.90
9323;DHT22;4700;48.822;9.270;2022-08-04T18:23:48;33.60;99.90
9323;DHT22;4700;48.822;9.270;2022-08-04T18:26:35;33.40;99.90
9323;DHT22;4700;48.822;9.270;2022-08-04T18:29:22;33.30;99.90
9323;DHT22;4700;48.822;9.270;2022-08-04T18:32:09;33.10;99.90
9323;DHT22;4700;48.822;9.270;2022-08-04T18:34:55;32.90;99.90
9323;DHT22;4700;48.822;9.270;2022-08-04T18:37:41;32.80;99.90
9323;DHT22;4700;48.822;9.270;2022-08-04T18:40:27;32.80;99.90
9323;DHT22;4700;48.822;9.270;2022-08-04T18:43:16;32.70;99.90
9323;DHT22;4700;48.822;9.270;2022-08-04T18:46:02;32.60;99.90
9323;DHT22;4700;48.822;9.270;2022-08-04T18:48:48;32.40;99.90
9323;DHT22;4700;48.822;9.270;2022-08-04T18:51:35;32.30;99.90
9323;DHT22;4700;48.822;9.270;2022-08-04T18:54:22;32.10;99.90
9323;DHT22;4700;48.822;9.270;2022-08-04T18:57:09;31.90;99.90
9323;DHT22;4700;48.822;9.270;2022-08-04T18:59:58;31.80;99.90
9323;DHT22;4700;48.822;9.270;2022-08-04T19:02:43;31.60;99.90
9323;DHT22;4700;48.822;9.270;2022-08-04T19:05:30;31.50;99.90
9323;DHT22;4700;48.822;9.270;2022-08-04T19:08:16;31.30;99.90
9323;DHT22;4700;48.822;9.270;2022-08-04T19:11:03;31.10;99.90
9323;DHT22;4700;48.822;9.270;2022-08-04T19:13:49;31.00;99.90
9323;DHT22;4700;48.822;9.270;2022-08-04T19:16:35;30.80;99.90
9323;DHT22;4700;48.822;9.270;2022-08-04T19:19:23;30.60;99.90
9323;DHT22;4700;48.822;9.270;2022-08-04T19:22:10;30.40;99.90
9323;DHT22;4700;48.822;9.270;2022-08-04T19:24:55;30.20;99.90
9323;DHT22;4700;48.822;9.270;2022-08-04T19:27:41;30.00;1.00
9323;DHT22;4700;48.822;9.270;2022-08-04T19:30:27;29.70;1.00